Hauptseite
METAR-TAF:

METAR-TAF

Flughäfen :

Blackpool, England

Blackpool Airport

Breite: 53-46N, Länge: 003-02W, Höhe: 10 m

Beobachtung

Neuester Wetterbericht von vor 4 Stunden und 49 Minuten, um 20:50 UTC
Wind 10 kt aus Ost
Temperatur 2°C
Luftfeuchtigkeit 75%
Luftdruck 1026 hPa
Sichtweite 10 km oder mehr
keine Wolken unter 1500 m und keine Kumulonimbus oder Gewitterwolken

METAR: EGNH 242050Z 09010KT CAVOK 02/M02 Q1026

Zeit: 01:39 (01:39 UTC)

Prognose

Neuester Wetterbericht von vor 8 Stunden und 42 Minuten, um 16:57 UTC
Gültige Prognose vom 24 um 18 UTC bis 24 um 21 UTC
Wind 12 kt aus Ost/Südost
Sichtweite 10 km oder mehr
Leicht bewölkt in der Höhe von 3000 ft

TAF: EGNH 241657Z 2418/2421 11012KT 9999 FEW030

Wetterbeobachtungen und Prognosen von mehr als 4000 Flughäfen (METAR und TAF Bericht).

Die verfügbaren Stationen werden durch gelbe und rote Markierungen auf der Karte dargestellt.

Führen Sie die Maus auf sie, um den Namen der Station zu sehen.

Darauf klicken, um die Beobachtung von Wetterbeobachtungen und Prognosen zu sehen.

Um die Karte zu ändern : klicken Sie auf den grünen Tasten mit einem schwarzen Kreuz Zum Vergrößern, auf den grünen Button mit einem Gedankenstrich zu verkleinern, oder auf die grünen Pfeile für benachbarte Karten.


METAR-TAF: